Time;durP1;ratioP1;P1;durP2;ratioP2;P2;SDS_P1;SDS_P2;PMS_P1;PMS_P2;Temp;Humidity;BMP_temperature;BMP_pressure;BME280_temperature;BME280_humidity;BME280_pressure;Samples;Min_cycle;Max_cycle;Signal;HPM_P1;HPM_P2
2021/07/05 00:01:03;;;;;;;12.82;7.25;;;;;;;16.99;100.00;100646.44;6247962;28;20666;-76
2021/07/05 00:04:05;;;;;;;11.02;6.95;;;;;;;17.03;100.00;100653.16;6247476;28;20046;-76
2021/07/05 00:07:06;;;;;;;10.45;6.45;;;;;;;17.03;100.00;100657.63;6247971;28;20053;-76
2021/07/05 00:10:08;;;;;;;19.42;7.97;;;;;;;16.96;100.00;100662.59;6247543;28;20049;-76
2021/07/05 00:13:11;;;;;;;15.70;6.72;;;;;;;16.95;100.00;100659.09;6247755;28;20056;-76
2021/07/05 00:16:13;;;;;;;17.35;8.75;;;;;;;16.94;100.00;100664.53;6247518;28;20060;-76
2021/07/05 00:19:14;;;;;;;20.20;7.93;;;;;;;16.97;100.00;100662.47;6247812;28;20045;-76
2021/07/05 00:22:15;;;;;;;16.90;8.10;;;;;;;16.94;100.00;100668.03;6247204;28;20448;-76
2021/07/05 00:25:18;;;;;;;18.90;8.10;;;;;;;16.91;100.00;100670.09;6247702;28;20049;-76
2021/07/05 00:28:21;;;;;;;16.95;8.90;;;;;;;16.89;100.00;100672.84;6247123;28;20512;-76
2021/07/05 00:31:22;;;;;;;19.83;10.10;;;;;;;16.88;100.00;100673.00;6246761;28;20045;-76
2021/07/05 00:34:24;;;;;;;23.23;11.25;;;;;;;16.89;100.00;100683.47;6247271;28;20049;-75
2021/07/05 00:37:25;;;;;;;17.58;10.20;;;;;;;16.88;100.00;100673.81;6246780;28;20080;-76
2021/07/05 00:40:28;;;;;;;25.42;11.38;;;;;;;16.89;100.00;100675.50;6247262;28;20511;-76
2021/07/05 00:43:31;;;;;;;19.73;12.40;;;;;;;16.87;100.00;100677.47;6246750;28;20519;-76
2021/07/05 00:46:32;;;;;;;21.75;12.30;;;;;;;16.91;100.00;100676.25;6247096;28;20054;-76
2021/07/05 00:49:34;;;;;;;25.23;13.98;;;;;;;16.90;100.00;100671.06;6246671;28;20049;-75
2021/07/05 00:52:37;;;;;;;22.08;13.25;;;;;;;16.89;100.00;100677.31;6246926;28;20057;-76
2021/07/05 00:55:38;;;;;;;22.77;13.85;;;;;;;16.85;100.00;100673.22;6246864;28;20057;-76
2021/07/05 00:58:41;;;;;;;28.23;13.68;;;;;;;16.83;100.00;100677.84;6246906;28;20056;-76
2021/07/05 01:01:43;;;;;;;27.35;14.32;;;;;;;16.77;100.00;100667.72;6246769;28;20042;-76
2021/07/05 01:04:45;;;;;;;24.05;14.77;;;;;;;16.79;100.00;100676.38;6246636;28;20049;-76
2021/07/05 01:07:47;;;;;;;29.98;14.55;;;;;;;16.78;100.00;100670.25;6246639;28;20048;-76
2021/07/05 01:10:48;;;;;;;22.63;16.08;;;;;;;16.77;100.00;100665.91;6246793;28;20061;-75
2021/07/05 01:13:51;;;;;;;23.65;13.63;;;;;;;16.79;100.00;100666.59;6246405;28;20052;-75
2021/07/05 01:16:52;;;;;;;33.88;17.83;;;;;;;16.71;100.00;100669.88;6246345;28;20440;-76
2021/07/05 01:19:54;;;;;;;32.28;18.73;;;;;;;16.67;100.00;100657.81;6246690;28;20076;-76
2021/07/05 01:22:57;;;;;;;40.65;18.38;;;;;;;16.70;100.00;100668.16;6246140;28;20042;-75
2021/07/05 01:25:59;;;;;;;38.15;20.52;;;;;;;16.67;100.00;100671.09;6246521;28;20056;-76
2021/07/05 01:29:01;;;;;;;31.02;20.30;;;;;;;16.63;100.00;100674.94;6246362;28;20524;-76
2021/07/05 01:32:04;;;;;;;41.42;22.10;;;;;;;16.64;100.00;100679.28;6246642;28;20064;-76
2021/07/05 01:35:07;;;;;;;30.63;21.40;;;;;;;16.62;100.00;100667.94;6246156;28;20055;-76
2021/07/05 01:38:12;;;;;;;37.33;24.63;;;;;;;16.59;100.00;100662.88;6246862;28;20049;-77
2021/07/05 01:41:13;;;;;;;42.35;23.15;;;;;;;16.51;100.00;100667.09;6247872;28;20398;-76
2021/07/05 01:44:15;;;;;;;34.08;23.58;;;;;;;16.48;100.00;100665.53;6251165;28;20050;-76
2021/07/05 01:47:17;;;;;;;36.50;24.90;;;;;;;16.49;100.00;100656.63;6250794;28;20049;-76
2021/07/05 01:50:21;;;;;;;37.80;24.98;;;;;;;16.51;100.00;100656.50;6251281;28;20060;-76
2021/07/05 01:53:23;;;;;;;38.75;25.30;;;;;;;16.48;100.00;100655.75;6250703;28;20191;-76
2021/07/05 01:56:25;;;;;;;43.50;26.02;;;;;;;16.48;100.00;100662.88;6251057;28;20046;-76
2021/07/05 01:59:26;;;;;;;35.58;25.48;;;;;;;16.48;100.00;100661.06;6250460;28;20076;-76
2021/07/05 02:02:28;;;;;;;48.67;25.83;;;;;;;16.46;100.00;100657.72;6250751;28;20058;-76
2021/07/05 02:05:31;;;;;;;45.53;27.38;;;;;;;16.41;100.00;100661.69;6250600;28;20052;-75
2021/07/05 02:08:33;;;;;;;37.58;26.73;;;;;;;16.39;100.00;100658.31;6250332;28;20124;-76
2021/07/05 02:11:36;;;;;;;38.58;25.40;;;;;;;16.41;100.00;100659.88;6250729;28;20049;-76
2021/07/05 02:14:37;;;;;;;37.20;25.45;;;;;;;16.34;100.00;100656.00;6250261;28;20420;-76
2021/07/05 02:17:39;;;;;;;46.35;27.65;;;;;;;16.28;100.00;100651.19;6250567;28;20056;-76
2021/07/05 02:20:41;;;;;;;47.38;26.33;;;;;;;16.28;100.00;100659.16;6250602;28;20535;-76
2021/07/05 02:23:43;;;;;;;51.03;28.45;;;;;;;16.26;100.00;100660.22;6250165;28;20523;-76
2021/07/05 02:26:45;;;;;;;37.88;26.88;;;;;;;16.23;100.00;100654.22;6250058;28;20046;-76
2021/07/05 02:29:47;;;;;;;48.72;26.30;;;;;;;16.25;100.00;100654.09;6250189;28;20041;-76
2021/07/05 02:32:49;;;;;;;49.55;28.30;;;;;;;16.23;100.00;100651.56;6249998;28;20056;-76
2021/07/05 02:35:50;;;;;;;41.33;27.90;;;;;;;16.24;100.00;100655.06;6249890;28;20501;-76
2021/07/05 02:38:53;;;;;;;47.35;27.77;;;;;;;16.24;100.00;100652.41;6250183;28;20489;-77
2021/07/05 02:41:54;;;;;;;36.90;26.38;;;;;;;16.19;100.00;100652.75;6249944;28;20056;-76
2021/07/05 02:44:56;;;;;;;43.97;26.10;;;;;;;16.18;100.00;100647.59;6249643;28;20049;-75
2021/07/05 02:48:00;;;;;;;42.88;24.35;;;;;;;16.13;100.00;100653.25;6249310;28;20050;-75
2021/07/05 02:51:04;;;;;;;42.47;26.25;;;;;;;16.13;100.00;100655.06;6249677;28;20148;-75
2021/07/05 02:54:06;;;;;;;40.70;26.13;;;;;;;16.10;100.00;100653.50;6248869;28;20053;-75
2021/07/05 02:57:08;;;;;;;51.53;25.58;;;;;;;16.09;100.00;100645.66;6249767;28;20046;-76
2021/07/05 03:00:13;;;;;;;49.05;26.15;;;;;;;16.06;100.00;100649.38;6249679;28;20049;-75
2021/07/05 03:03:15;;;;;;;49.95;24.52;;;;;;;16.01;100.00;100654.19;6249153;28;20042;-75
2021/07/05 03:06:16;;;;;;;43.03;26.27;;;;;;;15.96;100.00;100659.03;6249259;28;20132;-75
2021/07/05 03:09:19;;;;;;;36.70;24.17;;;;;;;15.95;100.00;100658.19;6249337;28;20409;-77
2021/07/05 03:12:21;;;;;;;39.03;24.35;;;;;;;15.87;100.00;100646.47;6249093;28;20053;-75
2021/07/05 03:15:23;;;;;;;44.30;23.77;;;;;;;15.86;100.00;100645.63;6249074;28;20485;-76
2021/07/05 03:18:24;;;;;;;36.10;24.80;;;;;;;15.84;100.00;100636.09;6248843;28;20056;-75
2021/07/05 03:21:26;;;;;;;42.45;23.50;;;;;;;15.81;100.00;100645.16;6249217;28;20057;-75
2021/07/05 03:24:29;;;;;;;32.80;24.05;;;;;;;15.79;100.00;100649.72;6248568;28;20052;-76
2021/07/05 03:27:30;;;;;;;41.53;24.25;;;;;;;15.75;100.00;100647.41;6248886;28;20493;-75
2021/07/05 03:30:32;;;;;;;40.08;22.95;;;;;;;15.78;100.00;100652.50;6248697;28;20061;-75
2021/07/05 03:33:34;;;;;;;33.30;20.48;;;;;;;15.78;100.00;100655.13;6248638;28;20072;-75
2021/07/05 03:36:35;;;;;;;42.53;24.90;;;;;;;15.74;100.00;100651.88;6248572;28;20049;-76
2021/07/05 03:39:38;;;;;;;39.03;24.38;;;;;;;15.75;100.00;100645.59;6248363;28;20053;-75
2021/07/05 03:42:40;;;;;;;36.60;23.25;;;;;;;15.73;100.00;100644.88;6248356;28;20050;-75
2021/07/05 03:45:42;;;;;;;42.60;23.77;;;;;;;15.68;100.00;100634.66;6248264;28;20041;-75
2021/07/05 03:48:44;;;;;;;36.47;22.50;;;;;;;15.67;100.00;100629.47;6248362;28;20057;-76
2021/07/05 03:51:46;;;;;;;31.98;19.88;;;;;;;15.68;100.00;100625.84;6248155;28;20053;-76
2021/07/05 03:54:48;;;;;;;40.22;22.73;;;;;;;15.65;100.00;100628.72;6248125;28;20057;-75
2021/07/05 03:57:51;;;;;;;42.70;22.75;;;;;;;15.61;100.00;100629.88;6247941;28;20424;-76
2021/07/05 04:00:52;;;;;;;31.05;20.85;;;;;;;15.57;100.00;100634.56;6248189;28;20053;-76
2021/07/05 04:03:54;;;;;;;38.38;21.15;;;;;;;15.60;100.00;100637.00;6247466;28;20057;-75
2021/07/05 04:06:55;;;;;;;38.65;21.65;;;;;;;15.57;100.00;100631.91;6247344;28;20054;-75
2021/07/05 04:09:58;;;;;;;35.65;20.30;;;;;;;15.58;100.00;100630.13;6247780;28;20054;-75
2021/07/05 04:12:59;;;;;;;40.90;21.35;;;;;;;15.54;100.00;100634.81;6247689;28;20049;-75
2021/07/05 04:16:01;;;;;;;39.78;20.58;;;;;;;15.49;100.00;100629.03;6247708;28;20124;-75
2021/07/05 04:19:02;;;;;;;32.20;19.05;;;;;;;15.46;100.00;100624.81;6247522;28;20409;-75
2021/07/05 04:22:05;;;;;;;35.47;19.70;;;;;;;15.41;100.00;100626.97;6247584;28;20056;-75
2021/07/05 04:25:11;;;;;;;34.80;19.95;;;;;;;15.38;100.00;100616.59;6247324;28;20045;-76
2021/07/05 04:28:12;;;;;;;29.88;19.45;;;;;;;15.38;100.00;100619.22;6247402;28;20492;-75
2021/07/05 04:31:13;;;;;;;32.50;19.73;;;;;;;15.35;100.00;100618.63;6247286;28;20447;-75
2021/07/05 04:34:15;;;;;;;38.40;19.65;;;;;;;15.36;100.00;100628.28;6247053;28;20042;-75
2021/07/05 04:37:16;;;;;;;35.22;19.08;;;;;;;15.29;100.00;100635.81;6247058;28;20072;-75
2021/07/05 04:40:21;;;;;;;31.45;19.92;;;;;;;15.24;100.00;100627.38;6247137;28;20049;-75
2021/07/05 04:43:22;;;;;;;35.25;19.65;;;;;;;15.21;100.00;100627.59;6246842;28;20049;-76
2021/07/05 04:46:24;;;;;;;31.90;18.80;;;;;;;15.18;100.00;100623.38;6247189;28;20046;-76
2021/07/05 04:49:26;;;;;;;39.13;19.33;;;;;;;15.18;100.00;100622.53;6246753;28;20053;-75
2021/07/05 04:52:27;;;;;;;32.17;18.08;;;;;;;15.20;100.00;100631.22;6247079;28;20050;-76
2021/07/05 04:55:30;;;;;;;29.83;18.63;;;;;;;15.15;100.00;100630.72;6246517;28;20041;-76
2021/07/05 04:58:32;;;;;;;24.63;15.80;;;;;;;15.20;100.00;100634.69;6246965;28;20049;-76
2021/07/05 05:01:33;;;;;;;28.40;17.70;;;;;;;15.23;100.00;100641.56;6246703;28;20053;-76
2021/07/05 05:04:35;;;;;;;27.08;16.08;;;;;;;15.24;100.00;100637.97;6246748;28;20045;-76
2021/07/05 05:07:37;;;;;;;24.33;16.38;;;;;;;15.26;100.00;100628.13;6246602;28;20049;-76
2021/07/05 05:10:41;;;;;;;30.90;16.20;;;;;;;15.30;100.00;100631.34;6246872;28;20050;-76
2021/07/05 05:13:42;;;;;;;27.73;16.88;;;;;;;15.37;100.00;100633.44;6246484;28;20045;-76
2021/07/05 05:16:43;;;;;;;36.17;17.05;;;;;;;15.37;100.00;100637.91;6250335;28;20061;-76
2021/07/05 05:19:45;;;;;;;24.98;16.40;;;;;;;15.41;100.00;100634.06;6254906;28;20046;-76
2021/07/05 05:22:47;;;;;;;19.20;14.48;;;;;;;15.45;100.00;100630.22;6254519;28;20045;-76
2021/07/05 05:25:50;;;;;;;25.33;15.13;;;;;;;15.43;100.00;100637.41;6254883;28;20045;-76
2021/07/05 05:28:51;;;;;;;26.30;15.88;;;;;;;15.47;100.00;100642.38;6254556;28;20049;-76
2021/07/05 05:31:53;;;;;;;26.10;15.02;;;;;;;15.52;100.00;100636.72;6254678;28;20425;-76
2021/07/05 05:34:54;;;;;;;25.05;13.18;;;;;;;15.56;100.00;100629.41;6254414;28;20045;-76
2021/07/05 05:37:57;;;;;;;25.63;12.88;;;;;;;15.65;100.00;100629.56;6254620;28;20054;-76
2021/07/05 05:40:59;;;;;;;18.90;11.38;;;;;;;15.68;100.00;100628.50;6254423;28;20057;-76
2021/07/05 05:44:02;;;;;;;20.25;9.07;;;;;;;15.72;100.00;100624.66;6254218;28;20049;-76
2021/07/05 05:47:03;;;;;;;16.63;8.13;;;;;;;15.73;100.00;100623.69;6254379;28;20064;-76
2021/07/05 05:50:07;;;;;;;9.50;6.57;;;;;;;15.81;100.00;100626.59;6254494;28;20058;-76
2021/07/05 05:53:08;;;;;;;14.57;5.50;;;;;;;15.83;100.00;100624.66;6252433;28;20060;-76
2021/07/05 05:56:12;;;;;;;10.52;5.72;;;;;;;15.91;100.00;100618.78;6252998;28;20045;-76
2021/07/05 05:59:14;;;;;;;10.10;6.05;;;;;;;15.90;100.00;100623.25;6252756;28;20072;-76
2021/07/05 06:02:16;;;;;;;7.93;4.95;;;;;;;15.96;100.00;100625.41;6250411;28;20056;-76
2021/07/05 06:05:18;;;;;;;10.40;5.05;;;;;;;15.96;100.00;100629.88;6248707;28;20041;-75
2021/07/05 06:08:19;;;;;;;11.23;5.38;;;;;;;16.04;100.00;100626.63;6251541;28;20045;-76
2021/07/05 06:11:22;;;;;;;13.23;5.47;;;;;;;16.08;100.00;100625.41;6252605;28;20045;-76
2021/07/05 06:14:23;;;;;;;10.43;5.13;;;;;;;16.11;100.00;100622.50;6251975;28;20412;-76
2021/07/05 06:17:25;;;;;;;10.32;5.03;;;;;;;16.12;100.00;100617.06;6251220;28;20049;-76
2021/07/05 06:20:26;;;;;;;8.25;4.50;;;;;;;16.13;100.00;100618.78;6252373;28;20050;-74
2021/07/05 06:23:28;;;;;;;8.45;4.53;;;;;;;16.18;100.00;100613.13;6252888;28;20052;-76
2021/07/05 06:26:30;;;;;;;13.88;4.72;;;;;;;16.31;100.00;100615.66;6253855;28;20184;-76
2021/07/05 06:29:32;;;;;;;7.13;4.25;;;;;;;16.29;100.00;100610.44;6249621;28;20056;-76
2021/07/05 06:32:33;;;;;;;7.53;3.92;;;;;;;16.28;100.00;100611.44;6250080;28;20049;-75
2021/07/05 06:35:35;;;;;;;11.77;3.80;;;;;;;16.33;100.00;100609.25;6250050;28;20420;-75
2021/07/05 06:38:36;;;;;;;8.00;4.88;;;;;;;16.36;100.00;100608.19;6249637;28;20420;-75
2021/07/05 06:41:39;;;;;;;7.45;4.05;;;;;;;16.36;100.00;100602.88;6249751;28;20124;-76
2021/07/05 06:44:40;;;;;;;9.05;3.50;;;;;;;16.41;100.00;100611.28;6249783;28;20045;-75
2021/07/05 06:47:42;;;;;;;3.42;2.72;;;;;;;16.48;100.00;100602.69;6249468;28;20049;-76
2021/07/05 06:50:44;;;;;;;3.95;2.42;;;;;;;16.46;100.00;100607.31;6249825;28;20050;-75
2021/07/05 06:53:46;;;;;;;7.78;2.50;;;;;;;16.49;100.00;100596.47;6249432;28;20052;-76
2021/07/05 06:56:48;;;;;;;5.95;3.25;;;;;;;16.55;100.00;100594.28;6249586;28;20052;-75
2021/07/05 06:59:50;;;;;;;5.20;2.55;;;;;;;16.57;100.00;100603.78;6248835;28;20046;-75
2021/07/05 07:02:52;;;;;;;5.47;2.22;;;;;;;16.67;100.00;100593.28;6249095;28;20045;-75
2021/07/05 07:05:55;;;;;;;7.68;2.10;;;;;;;16.76;100.00;100597.00;6249159;28;20488;-74
2021/07/05 07:08:56;;;;;;;2.83;1.95;;;;;;;16.83;100.00;100591.09;6248916;28;20071;-75
2021/07/05 07:11:59;;;;;;;4.32;1.85;;;;;;;16.94;100.00;100592.84;6249123;28;20050;-75
2021/07/05 07:15:00;;;;;;;5.00;1.90;;;;;;;17.01;100.00;100593.19;6249026;28;20057;-75
2021/07/05 07:18:06;;;;;;;1.80;1.50;;;;;;;17.18;100.00;100589.97;6248980;28;20524;-74
2021/07/05 07:21:08;;;;;;;5.13;1.90;;;;;;;17.21;100.00;100581.75;6249148;28;20056;-74
2021/07/05 07:24:09;;;;;;;2.47;1.73;;;;;;;17.28;100.00;100584.75;6248649;28;20049;-75
2021/07/05 07:27:12;;;;;;;4.18;1.50;;;;;;;17.48;100.00;100573.25;6248559;28;20060;-77
2021/07/05 07:30:15;;;;;;;4.20;1.40;;;;;;;17.61;100.00;100581.03;6248682;28;20056;-75
2021/07/05 07:33:16;;;;;;;3.08;1.55;;;;;;;17.66;100.00;100577.00;6248292;28;20056;-75
2021/07/05 07:36:19;;;;;;;3.08;1.10;;;;;;;17.74;100.00;100579.03;6248498;28;20171;-76
2021/07/05 07:39:25;;;;;;;4.32;1.23;;;;;;;17.79;100.00;100582.13;6248260;28;20049;-75
2021/07/05 07:42:28;;;;;;;6.32;1.20;;;;;;;17.86;100.00;100577.16;6248489;28;20423;-75
2021/07/05 07:45:29;;;;;;;1.77;0.80;;;;;;;17.98;100.00;100568.94;6248000;28;20045;-75
2021/07/05 07:48:31;;;;;;;1.25;1.00;;;;;;;18.04;100.00;100553.44;6247833;28;20531;-75
2021/07/05 07:51:32;;;;;;;3.88;2.63;;;;;;;18.11;100.00;100560.72;6248000;28;20049;-75
2021/07/05 07:54:34;;;;;;;3.83;1.60;;;;;;;18.18;100.00;100561.88;6246362;28;20045;-75
2021/07/05 07:57:37;;;;;;;1.90;1.17;;;;;;;18.24;100.00;100560.47;6247882;28;20063;-75
2021/07/05 08:00:39;;;;;;;5.47;1.00;;;;;;;18.28;97.21;100555.75;6248044;28;20049;-75
2021/07/05 08:03:40;;;;;;;5.40;1.08;;;;;;;18.29;100.00;100560.91;6246990;28;20045;-75
2021/07/05 08:06:42;;;;;;;2.75;0.80;;;;;;;18.38;100.00;100573.41;6247634;28;20041;-75
2021/07/05 08:09:43;;;;;;;1.70;0.98;;;;;;;18.42;100.00;100566.84;6237841;28;20493;-76
2021/07/05 08:12:47;;;;;;;2.55;1.10;;;;;;;18.47;98.19;100569.09;6228025;28;20057;-76
2021/07/05 08:15:48;;;;;;;1.17;0.90;;;;;;;18.54;98.40;100572.88;6246166;28;20459;-75
2021/07/05 08:18:50;;;;;;;4.38;1.10;;;;;;;18.51;100.00;100568.66;6239536;28;20057;-76
2021/07/05 08:21:51;;;;;;;2.78;1.02;;;;;;;18.56;98.83;100572.75;6247330;28;20052;-76
2021/07/05 08:24:55;;;;;;;3.60;1.20;;;;;;;18.64;100.00;100573.75;6246649;28;20052;-75
2021/07/05 08:27:58;;;;;;;1.30;1.20;;;;;;;18.69;96.76;100574.19;6245934;28;20077;-75
2021/07/05 08:31:01;;;;;;;2.78;0.80;;;;;;;18.73;97.46;100566.78;6247167;28;20054;-75
2021/07/05 08:34:03;;;;;;;3.65;1.10;;;;;;;18.69;96.63;100566.22;6244427;28;20057;-76
2021/07/05 08:37:04;;;;;;;5.07;1.23;;;;;;;18.79;100.00;100565.38;6237689;28;20049;-75
2021/07/05 08:40:08;;;;;;;5.80;1.38;;;;;;;18.84;98.29;100573.78;6225128;28;20058;-76
2021/07/05 08:43:12;;;;;;;1.35;1.00;;;;;;;18.86;98.51;100566.50;6224524;28;20065;-74
2021/07/05 08:46:15;;;;;;;5.80;1.20;;;;;;;18.94;98.16;100558.63;6222438;28;20042;-75
2021/07/05 08:49:17;;;;;;;4.65;1.15;;;;;;;19.04;95.57;100569.31;6224889;28;20512;-75
2021/07/05 08:52:18;;;;;;;3.10;1.08;;;;;;;19.12;92.59;100567.63;6246363;28;20053;-74
2021/07/05 08:55:22;;;;;;;7.65;1.13;;;;;;;19.14;94.61;100570.16;6241821;28;20500;-75
2021/07/05 08:58:25;;;;;;;1.65;1.10;;;;;;;19.09;95.34;100567.91;6243088;28;20394;-76
2021/07/05 09:01:26;;;;;;;4.47;1.33;;;;;;;18.97;96.07;100569.03;6245721;28;20053;-76
2021/07/05 09:04:28;;;;;;;1.65;1.20;;;;;;;18.85;98.04;100568.34;6245496;28;20057;-75
2021/07/05 09:07:29;;;;;;;5.28;1.40;;;;;;;18.75;100.00;100565.63;6246295;28;20049;-75
2021/07/05 09:10:43;;;;;;;1.88;1.15;;;;;;;18.63;98.88;100577.38;6246236;28;20052;-75
2021/07/05 09:13:48;;;;;;;21.15;1.85;;;;;;;18.38;100.00;100610.66;6245872;28;20053;-74
2021/07/05 09:16:51;;;;;;;7.25;2.00;;;;;;;17.03;100.00;100613.31;6246602;28;20406;-74
2021/07/05 09:19:52;;;;;;;3.33;1.38;;;;;;;16.41;100.00;100609.47;6244998;28;20077;-75
2021/07/05 09:23:11;;;;;;;3.50;1.60;;;;;;;16.09;100.00;100621.81;6243402;28;20045;-75
2021/07/05 09:26:19;;;;;;;3.08;1.80;;;;;;;15.94;100.00;100627.34;6243985;28;20085;-75
2021/07/05 09:29:23;;;;;;;3.65;1.77;;;;;;;15.92;100.00;100623.09;6244419;28;20045;-75
2021/07/05 09:32:26;;;;;;;3.53;1.88;;;;;;;15.90;100.00;100633.84;6244856;28;20523;-74
2021/07/05 09:35:37;;;;;;;3.17;1.88;;;;;;;15.92;100.00;100628.41;6244000;28;20073;-74
2021/07/05 09:38:41;;;;;;;2.25;1.60;;;;;;;15.87;100.00;100631.41;6241055;28;20045;-74
2021/07/05 09:41:43;;;;;;;5.90;1.70;;;;;;;15.84;100.00;100636.09;6245395;28;20045;-74
2021/07/05 09:44:47;;;;;;;3.05;1.50;;;;;;;15.84;100.00;100636.09;6246194;28;20049;-74
2021/07/05 09:48:13;;;;;;;1.52;1.25;;;;;;;15.85;100.00;100632.47;6243118;28;20053;-75
2021/07/05 09:51:19;;;;;;;4.30;1.40;;;;;;;15.77;100.00;100637.56;6245860;28;20049;-74
2021/07/05 09:54:25;;;;;;;1.52;1.17;;;;;;;15.82;100.00;100638.88;6245614;28;20056;-74
2021/07/05 09:57:30;;;;;;;2.33;1.55;;;;;;;15.83;100.00;100631.78;6245391;28;20046;-75
2021/07/05 10:00:31;;;;;;;1.10;1.00;;;;;;;15.91;100.00;100639.97;6246321;28;20053;-75
2021/07/05 10:03:39;;;;;;;2.50;0.80;;;;;;;15.94;100.00;100637.06;6246246;28;20052;-74
2021/07/05 10:06:43;;;;;;;1.35;1.05;;;;;;;15.92;100.00;100646.97;6246501;28;20038;-73
2021/07/05 10:09:47;;;;;;;2.55;1.05;;;;;;;15.92;100.00;100641.66;6248832;28;20041;-74
2021/07/05 10:12:52;;;;;;;3.47;1.05;;;;;;;16.10;100.00;100639.38;6248813;28;20049;-73
2021/07/05 10:16:02;;;;;;;3.30;0.90;;;;;;;16.08;100.00;100643.94;6248021;28;20420;-74
2021/07/05 10:19:04;;;;;;;;;;;;;;;16.03;100.00;100648.78;6246713;28;20049;-75
2021/07/05 10:22:06;;;;;;;1.77;0.90;;;;;;;16.02;100.00;100642.63;6249499;28;19921;-74
2021/07/05 10:25:08;;;;;;;2.95;1.30;;;;;;;15.98;100.00;100647.31;6238681;28;20061;-75
2021/07/05 10:28:10;;;;;;;4.85;1.55;;;;;;;16.12;100.00;100645.41;6250161;28;20050;-75
2021/07/05 10:31:11;;;;;;;2.75;0.95;;;;;;;16.11;100.00;100644.56;6249761;28;20054;-75
2021/07/05 10:34:14;;;;;;;1.92;0.80;;;;;;;16.10;100.00;100648.19;6249059;28;20053;-75
2021/07/05 10:37:21;;;;;;;1.23;1.00;;;;;;;16.06;100.00;100656.50;6249362;28;20045;-75
2021/07/05 10:40:24;;;;;;;1.50;1.15;;;;;;;16.06;100.00;100654.69;6249577;28;20049;-75
2021/07/05 10:43:45;;;;;;;1.17;1.08;;;;;;;16.10;100.00;100658.78;6246790;28;20050;-75
2021/07/05 10:46:49;;;;;;;1.58;1.25;;;;;;;16.15;100.00;100666.38;6247508;28;20045;-75
2021/07/05 10:49:53;;;;;;;1.35;1.25;;;;;;;16.22;100.00;100665.78;6249372;28;20530;-76
2021/07/05 10:52:54;;;;;;;1.70;1.35;;;;;;;16.26;100.00;100668.19;6249566;28;20109;-75
2021/07/05 10:55:56;;;;;;;1.45;1.30;;;;;;;16.23;100.00;100670.13;6248354;28;20052;-75
2021/07/05 10:59:25;;;;;;;2.58;1.13;;;;;;;16.27;100.00;100672.56;6248723;28;20061;-75
2021/07/05 11:02:48;;;;;;;1.40;1.30;;;;;;;16.24;100.00;100670.97;6246554;28;20145;-75
2021/07/05 11:05:52;;;;;;;1.52;1.40;;;;;;;16.33;100.00;100669.41;6246829;28;20045;-76
2021/07/05 11:08:54;;;;;;;4.47;1.50;;;;;;;16.35;100.00;100665.69;6249145;28;20049;-75
2021/07/05 11:11:58;;;;;;;2.58;2.22;;;;;;;16.44;100.00;100667.59;6248837;28;20049;-76
2021/07/05 11:15:00;;;;;;;2.30;2.00;;;;;;;16.58;100.00;100666.50;6248744;28;20496;-76
2021/07/05 11:18:01;;;;;;;4.68;2.80;;;;;;;16.89;100.00;100669.34;6248819;28;20398;-75
2021/07/05 11:21:04;;;;;;;7.32;3.13;;;;;;;16.82;100.00;100663.72;6249377;28;20056;-75
2021/07/05 11:24:16;;;;;;;8.57;2.90;;;;;;;16.94;100.00;100664.53;6248919;28;20053;-75
2021/07/05 11:27:29;;;;;;;4.05;2.80;;;;;;;17.13;100.00;100663.88;6248328;28;20428;-76
2021/07/05 11:30:39;;;;;;;3.67;2.58;;;;;;;17.03;100.00;100669.06;6248671;28;20543;-76
2021/07/05 11:33:42;;;;;;;5.18;3.10;;;;;;;17.13;100.00;100669.19;6248655;28;20056;-75
2021/07/05 11:36:44;;;;;;;4.93;2.72;;;;;;;17.27;100.00;100665.41;6248157;28;20069;-76
2021/07/05 11:39:47;;;;;;;2.90;2.65;;;;;;;17.52;100.00;100672.16;6248689;28;20046;-76
2021/07/05 11:43:01;;;;;;;2.40;2.00;;;;;;;17.78;100.00;100670.84;6248660;28;20064;-76
2021/07/05 11:46:03;;;;;;;2.10;1.73;;;;;;;18.39;100.00;100665.53;6248303;28;20049;-76
2021/07/05 11:49:06;;;;;;;2.78;1.67;;;;;;;18.59;100.00;100669.13;6247928;28;20504;-76
2021/07/05 11:52:15;;;;;;;1.88;1.50;;;;;;;18.86;100.00;100665.03;6248578;28;20053;-75
2021/07/05 11:55:17;;;;;;;1.27;1.13;;;;;;;18.66;100.00;100656.94;6248012;28;20057;-75
2021/07/05 11:58:19;;;;;;;2.13;1.40;;;;;;;18.21;100.00;100659.16;6248283;28;20291;-76
2021/07/05 12:01:21;;;;;;;1.95;1.00;;;;;;;18.14;100.00;100658.03;6247986;28;20053;-76
2021/07/05 12:04:27;;;;;;;1.17;1.08;;;;;;;18.16;100.00;100659.56;6248099;28;20053;-75
2021/07/05 12:07:30;;;;;;;1.90;1.33;;;;;;;18.20;100.00;100646.84;6247363;28;20046;-75
2021/07/05 12:10:33;;;;;;;3.35;1.38;;;;;;;18.45;100.00;100653.53;6247937;28;20053;-76
2021/07/05 12:13:34;;;;;;;4.13;1.63;;;;;;;18.77;100.00;100658.72;6247724;28;20049;-76
2021/07/05 12:16:37;;;;;;;1.85;1.30;;;;;;;18.74;100.00;100658.97;6247490;28;20485;-76
2021/07/05 12:19:41;;;;;;;1.23;1.00;;;;;;;18.51;100.00;100659.16;6247733;28;20397;-75
2021/07/05 12:22:44;;;;;;;1.80;1.20;;;;;;;18.30;100.00;100655.72;6247522;28;20046;-75
2021/07/05 12:25:46;;;;;;;2.08;1.00;;;;;;;18.23;100.00;100667.88;6246542;28;20533;-75
2021/07/05 12:29:02;;;;;;;1.50;1.40;;;;;;;18.20;100.00;100657.50;6247237;28;20053;-76
2021/07/05 12:32:13;;;;;;;2.05;1.55;;;;;;;18.69;100.00;100656.72;6245595;28;20076;-75
2021/07/05 12:35:15;;;;;;;2.33;1.42;;;;;;;19.66;100.00;100651.47;6246275;28;20045;-76
2021/07/05 12:38:18;;;;;;;2.00;1.27;;;;;;;20.16;100.00;100653.84;6247081;28;20045;-77
2021/07/05 12:41:28;;;;;;;0.93;0.85;;;;;;;20.47;92.13;100643.78;6249865;28;20045;-80
2021/07/05 12:44:29;;;;;;;;;;;;;;;20.59;91.77;100651.59;6249058;28;20049;-76
2021/07/05 12:47:31;;;;;;;1.25;0.80;;;;;;;20.52;98.23;100649.50;6246667;28;19927;-76
2021/07/05 12:50:36;;;;;;;0.95;0.80;;;;;;;20.62;87.75;100641.47;6247892;28;20072;-75
2021/07/05 12:53:42;;;;;;;1.45;0.93;;;;;;;20.48;93.58;100648.16;6246884;28;20193;-76
2021/07/05 12:56:44;;;;;;;2.50;0.95;;;;;;;20.80;88.10;100652.16;6247550;28;20048;-75
2021/07/05 13:00:03;;;;;;;3.35;1.08;;;;;;;20.90;86.90;100649.44;6246891;28;20137;-75
2021/07/05 13:03:11;;;;;;;1.45;0.88;;;;;;;21.22;82.63;100649.75;6248088;28;20056;-76
2021/07/05 13:06:12;;;;;;;1.95;1.00;;;;;;;21.42;78.00;100645.13;6247522;28;20049;-75
2021/07/05 13:09:16;;;;;;;1.17;0.88;;;;;;;21.47;83.08;100655.34;6247536;28;20052;-77
2021/07/05 13:12:18;;;;;;;1.92;0.90;;;;;;;21.43;78.65;100646.78;6248499;28;20144;-77
2021/07/05 13:15:20;;;;;;;2.58;1.27;;;;;;;21.03;75.27;100656.09;6247376;28;20049;-76
2021/07/05 13:18:24;;;;;;;2.05;0.95;;;;;;;21.17;80.20;100660.09;6247199;28;20052;-79
2021/07/05 13:21:28;;;;;;;2.10;0.90;;;;;;;21.61;76.76;100645.94;6247645;28;20046;-76
2021/07/05 13:24:32;;;;;;;0.95;0.70;;;;;;;21.37;75.85;100655.44;6246455;28;20708;-74
2021/07/05 13:27:36;;;;;;;1.10;0.70;;;;;;;21.57;74.98;100660.59;6246456;28;20130;-75
2021/07/05 13:30:39;;;;;;;1.35;0.68;;;;;;;21.47;67.08;100658.84;6246707;28;20064;-76
2021/07/05 13:33:40;;;;;;;1.52;0.60;;;;;;;21.80;68.18;100669.81;6247081;28;20412;-74
2021/07/05 13:36:52;;;;;;;3.83;0.60;;;;;;;21.81;65.79;100654.63;6246680;28;20052;-73
2021/07/05 13:40:00;;;;;;;1.27;0.60;;;;;;;21.49;61.44;100648.03;6252440;28;20052;-75
2021/07/05 13:43:05;;;;;;;1.45;0.50;;;;;;;21.63;66.13;100643.94;6251444;28;20052;-74
2021/07/05 13:46:13;;;;;;;0.60;0.57;;;;;;;21.95;62.07;100649.53;6251117;28;20045;-74
2021/07/05 13:49:14;;;;;;;11.30;0.90;;;;;;;22.28;59.93;100649.72;6250894;28;20049;-72
2021/07/05 13:52:31;;;;;;;1.80;0.75;;;;;;;22.37;59.69;100656.78;6251293;28;20053;-72
2021/07/05 13:55:36;;;;;;;1.98;0.80;;;;;;;22.17;64.02;100655.38;6250877;28;20057;-73